Time;durP1;ratioP1;P1;durP2;ratioP2;P2;SDS_P1;SDS_P2;PMS_P1;PMS_P2;Temp;Humidity;BMP_temperature;BMP_pressure;BME280_temperature;BME280_humidity;BME280_pressure;Samples;Min_cycle;Max_cycle;Signal;HPM_P1;HPM_P2
2024/03/10 00:00:14;;;;;;;19.33;12.20;;;;;;;8.83;59.09;99140.06;5052117;28;20100;-81
2024/03/10 00:02:46;;;;;;;20.10;13.65;;;;;;;8.78;59.08;99135.28;5051870;28;20049;-78
2024/03/10 00:05:15;;;;;;;18.75;12.60;;;;;;;8.64;59.58;99145.63;5060495;28;20522;-79
2024/03/10 00:07:43;;;;;;;18.55;13.20;;;;;;;8.58;59.75;99145.25;5060026;28;20053;-80
2024/03/10 00:10:14;;;;;;;19.38;12.55;;;;;;;8.56;60.04;99144.59;5065052;28;20420;-81
2024/03/10 00:12:46;;;;;;;17.95;12.38;;;;;;;8.48;60.70;99160.38;5062418;28;20068;-80
2024/03/10 00:15:15;;;;;;;19.95;13.18;;;;;;;8.52;61.02;99169.59;5062607;28;20126;-80
2024/03/10 00:17:42;;;;;;;17.33;13.13;;;;;;;8.55;61.04;99171.13;5060211;28;20122;-80
2024/03/10 00:20:10;;;;;;;19.95;13.43;;;;;;;8.57;61.15;99177.03;5061275;28;20423;-80
2024/03/10 00:22:38;;;;;;;22.25;12.55;;;;;;;8.54;61.78;99182.66;5055699;28;20079;-81
2024/03/10 00:25:06;;;;;;;19.63;12.90;;;;;;;8.64;61.24;99174.63;5060805;28;20257;-80
2024/03/10 00:27:34;;;;;;;19.75;12.88;;;;;;;8.59;61.28;99170.66;5058498;28;20167;-79
2024/03/10 00:30:05;;;;;;;19.00;12.57;;;;;;;8.58;60.84;99166.34;5059646;28;20076;-77
2024/03/10 00:35:12;;;;;;;22.42;13.80;;;;;;;8.74;59.49;99162.13;5054725;28;20099;-80
2024/03/10 00:37:39;;;;;;;20.27;13.48;;;;;;;8.74;59.99;99167.41;5060901;28;20118;-80
2024/03/10 00:40:07;;;;;;;19.95;13.25;;;;;;;8.87;59.72;99159.88;5063068;28;20127;-79
2024/03/10 00:42:36;;;;;;;19.77;12.52;;;;;;;8.91;59.05;99158.56;5065341;28;20088;-79
2024/03/10 00:45:03;;;;;;;18.73;13.70;;;;;;;9.06;58.47;99156.13;5057922;28;20045;-81
2024/03/10 00:47:30;;;;;;;19.38;12.98;;;;;;;9.04;58.26;99152.84;5064830;28;20076;-79
2024/03/10 00:49:57;;;;;;;19.45;12.88;;;;;;;9.09;58.27;99140.00;5057935;28;20135;-79
2024/03/10 00:52:23;;;;;;;19.60;12.55;;;;;;;9.06;58.54;99146.44;5051520;28;20437;-78
2024/03/10 00:54:50;;;;;;;18.45;12.48;;;;;;;9.09;58.19;99142.63;5061567;28;20076;-79
2024/03/10 00:57:17;;;;;;;16.88;12.18;;;;;;;8.99;58.36;99139.31;5055699;28;20103;-80
2024/03/10 00:59:48;;;;;;;19.65;13.05;;;;;;;8.96;58.24;99129.91;5062995;28;20084;-80
2024/03/10 01:02:14;;;;;;;19.83;13.23;;;;;;;8.96;58.51;99124.63;5057923;28;20045;-77
2024/03/10 01:04:41;;;;;;;18.20;12.60;;;;;;;8.93;58.48;99139.94;5053808;28;20133;-78
2024/03/10 01:07:08;;;;;;;19.50;12.70;;;;;;;8.84;59.14;99136.47;5046437;28;20054;-79
2024/03/10 01:09:34;;;;;;;17.95;13.27;;;;;;;8.98;57.84;99132.41;5055594;28;20045;-79
2024/03/10 01:12:01;;;;;;;18.50;12.70;;;;;;;8.96;58.05;99126.44;5055297;28;20072;-78
2024/03/10 01:14:28;;;;;;;21.38;12.20;;;;;;;8.93;58.02;99124.09;5055013;28;20106;-77
2024/03/10 01:16:56;;;;;;;20.15;13.32;;;;;;;8.97;57.34;99120.97;5052938;28;20045;-78
2024/03/10 01:19:22;;;;;;;19.15;12.43;;;;;;;8.97;57.50;99110.44;5053261;28;20322;-79
2024/03/10 01:21:49;;;;;;;16.58;11.60;;;;;;;9.08;57.06;99118.06;5052879;28;20081;-77
2024/03/10 01:24:15;;;;;;;15.60;11.02;;;;;;;9.24;55.83;99116.41;5051861;28;20153;-78
2024/03/10 01:26:42;;;;;;;18.58;11.95;;;;;;;9.28;56.07;99107.19;5053828;28;20515;-79
2024/03/10 01:29:09;;;;;;;17.52;11.93;;;;;;;9.32;55.88;99109.34;5054159;28;20127;-79
2024/03/10 01:31:35;;;;;;;18.10;11.77;;;;;;;9.35;55.36;99108.19;5053996;28;20049;-80
2024/03/10 01:34:04;;;;;;;16.95;11.85;;;;;;;9.38;55.51;99099.97;5048711;28;20049;-76
2024/03/10 01:36:30;;;;;;;19.88;11.90;;;;;;;9.40;55.26;99100.59;5053512;28;20580;-78
2024/03/10 01:38:57;;;;;;;16.90;11.20;;;;;;;9.49;54.93;99104.91;5054414;28;20503;-79
2024/03/10 01:41:25;;;;;;;15.60;11.25;;;;;;;9.50;54.96;99095.97;5054214;28;20083;-78
2024/03/10 01:43:52;;;;;;;16.75;10.88;;;;;;;9.48;55.29;99108.53;5054788;28;20131;-78
2024/03/10 01:46:21;;;;;;;18.60;11.85;;;;;;;9.46;55.32;99096.47;5055267;28;20443;-79
2024/03/10 01:48:48;;;;;;;17.48;11.52;;;;;;;9.48;55.07;99092.69;5054684;28;20059;-79
2024/03/10 01:51:18;;;;;;;16.83;11.55;;;;;;;9.50;55.29;99084.59;5054941;28;20090;-79
2024/03/10 01:53:50;;;;;;;15.98;11.75;;;;;;;9.62;54.32;99085.91;5057218;28;20540;-79
2024/03/10 01:56:18;;;;;;;17.67;12.07;;;;;;;9.59;54.75;99083.59;5054781;28;20045;-79
2024/03/10 01:58:46;;;;;;;17.90;11.75;;;;;;;9.53;55.02;99077.19;5055570;28;20106;-79
2024/03/10 02:01:15;;;;;;;16.17;11.30;;;;;;;9.67;53.71;99070.41;5046016;28;20567;-77
2024/03/10 02:03:44;;;;;;;16.65;11.43;;;;;;;9.66;54.18;99073.22;5053946;28;20106;-79
2024/03/10 02:06:10;;;;;;;15.13;11.02;;;;;;;9.59;54.75;99065.13;5052702;28;20088;-79
2024/03/10 02:08:40;;;;;;;17.02;10.93;;;;;;;9.58;54.38;99055.56;5047858;28;20220;-79
2024/03/10 02:11:10;;;;;;;16.13;11.43;;;;;;;9.61;54.24;99050.75;5054145;28;20098;-79
2024/03/10 02:13:37;;;;;;;16.10;10.93;;;;;;;9.61;54.36;99057.88;5054093;28;20071;-79
2024/03/10 02:16:05;;;;;;;16.33;11.20;;;;;;;9.65;54.17;99050.44;5054859;28;20456;-78
2024/03/10 02:18:33;;;;;;;17.15;11.68;;;;;;;9.61;54.02;99036.75;5054426;28;20088;-79
2024/03/10 02:21:00;;;;;;;15.38;11.07;;;;;;;9.63;54.20;99046.13;5054105;28;20132;-79
2024/03/10 02:23:36;;;;;;;17.75;11.13;;;;;;;9.57;54.27;99049.44;5053878;28;20056;-78
2024/03/10 02:26:04;;;;;;;17.10;11.00;;;;;;;9.54;54.68;99044.50;5054384;28;20485;-79
2024/03/10 02:28:36;;;;;;;17.35;11.05;;;;;;;9.54;54.50;99039.22;5051225;28;20080;-79
2024/03/10 02:47:27;;;;;;;18.80;11.25;;;;;;;9.27;56.17;99011.34;5045290;28;20052;-78
2024/03/10 02:49:54;;;;;;;13.05;9.80;;;;;;;9.35;55.22;99013.16;5051739;28;20053;-79
2024/03/10 02:52:20;;;;;;;16.20;10.60;;;;;;;9.33;55.39;99004.56;5052269;28;20098;-78
2024/03/10 02:54:47;;;;;;;17.05;11.02;;;;;;;9.30;55.86;99003.09;5052530;28;20098;-78
2024/03/10 02:57:15;;;;;;;17.77;11.63;;;;;;;9.32;55.60;99008.19;5052525;28;20096;-78
2024/03/10 02:59:41;;;;;;;17.08;10.55;;;;;;;9.30;55.48;99000.47;5054133;28;20081;-79
2024/03/10 03:02:08;;;;;;;18.48;10.32;;;;;;;9.22;56.48;99002.28;5055442;28;20174;-78
2024/03/10 03:04:35;;;;;;;15.88;10.57;;;;;;;9.26;56.06;98995.69;5056042;28;20076;-79
2024/03/10 03:07:02;;;;;;;16.50;11.05;;;;;;;9.25;56.13;98991.41;5055219;28;20045;-80
2024/03/10 03:09:28;;;;;;;15.25;10.57;;;;;;;9.21;56.61;98979.53;5054275;28;20477;-79
2024/03/10 03:11:56;;;;;;;16.67;10.32;;;;;;;9.15;56.42;98985.44;5053403;28;20088;-79
2024/03/10 03:14:24;;;;;;;16.80;10.70;;;;;;;9.11;56.36;98984.97;5056173;28;20083;-77
2024/03/10 03:16:50;;;;;;;16.45;10.43;;;;;;;9.06;56.67;98985.47;5055985;28;20104;-80
2024/03/10 03:19:17;;;;;;;15.73;10.73;;;;;;;9.03;57.02;98982.31;5056045;28;20057;-79
2024/03/10 03:21:44;;;;;;;18.08;11.23;;;;;;;8.99;56.97;98976.56;5056602;28;20067;-80
2024/03/10 03:24:13;;;;;;;15.98;10.55;;;;;;;8.97;57.45;98970.59;5053314;28;20080;-81
2024/03/10 03:26:40;;;;;;;15.02;9.95;;;;;;;8.90;57.54;98956.44;5052828;28;20045;-78
2024/03/10 03:29:08;;;;;;;13.45;9.48;;;;;;;8.90;57.94;98950.34;5051609;28;20049;-77
2024/03/10 03:31:36;;;;;;;15.90;10.75;;;;;;;8.86;58.43;98947.19;5050643;28;20053;-78
2024/03/10 03:34:03;;;;;;;15.20;10.43;;;;;;;8.85;57.95;98942.91;5050796;28;20128;-77
2024/03/10 03:36:31;;;;;;;15.90;9.82;;;;;;;8.89;58.19;98936.31;5050766;28;20045;-78
2024/03/10 03:38:58;;;;;;;14.50;10.15;;;;;;;8.88;57.48;98933.84;5050704;28;20141;-77
2024/03/10 03:41:25;;;;;;;15.43;10.38;;;;;;;8.84;58.59;98933.34;5051142;28;20049;-76
2024/03/10 03:43:51;;;;;;;16.65;10.68;;;;;;;8.89;58.50;98930.22;5050841;28;20438;-78
2024/03/10 03:46:18;;;;;;;17.08;10.20;;;;;;;8.87;58.03;98925.09;5051363;28;20333;-78
2024/03/10 03:48:46;;;;;;;13.68;9.88;;;;;;;8.81;58.08;98934.50;5053429;28;20132;-78
2024/03/10 03:51:13;;;;;;;14.00;9.93;;;;;;;8.92;57.62;98935.97;5054766;28;20095;-77
2024/03/10 03:53:39;;;;;;;20.83;9.80;;;;;;;9.00;57.12;98930.69;5055858;28;20048;-80
2024/03/10 03:56:08;;;;;;;14.30;9.88;;;;;;;8.90;58.12;98935.31;5056898;28;20080;-80
2024/03/10 03:58:37;;;;;;;14.35;9.80;;;;;;;8.79;58.72;98938.28;5059165;28;20057;-82
2024/03/10 04:01:04;;;;;;;15.52;10.52;;;;;;;8.75;59.13;98942.22;5060734;28;20068;-80
2024/03/10 04:03:31;;;;;;;14.45;9.80;;;;;;;8.67;59.81;98939.63;5058804;28;20049;-80
2024/03/10 04:05:59;;;;;;;14.45;9.93;;;;;;;8.61;60.38;98938.44;5059409;28;20049;-79
2024/03/10 04:08:26;;;;;;;15.82;10.20;;;;;;;8.60;60.75;98940.25;5059399;28;20171;-80
2024/03/10 04:10:52;;;;;;;13.57;9.88;;;;;;;8.55;61.21;98941.72;5059199;28;20084;-81
2024/03/10 04:13:19;;;;;;;15.23;9.88;;;;;;;8.54;61.37;98934.81;5059331;28;20076;-80
2024/03/10 04:15:46;;;;;;;13.60;9.90;;;;;;;8.49;61.36;98935.31;5059287;28;20152;-80
2024/03/10 04:18:13;;;;;;;14.25;9.63;;;;;;;8.44;61.63;98940.25;5049080;28;20133;-80
2024/03/10 04:20:41;;;;;;;13.75;9.75;;;;;;;8.38;61.88;98932.97;5058597;28;20506;-80
2024/03/10 04:23:10;;;;;;;13.80;9.60;;;;;;;8.36;62.61;98932.28;5058331;28;20056;-78
2024/03/10 04:25:37;;;;;;;13.95;9.98;;;;;;;8.33;62.94;98929.97;5055444;28;20049;-81
2024/03/10 04:28:04;;;;;;;15.02;9.48;;;;;;;8.35;62.86;98928.81;5071855;28;20052;-81
2024/03/10 04:30:30;;;;;;;14.82;10.55;;;;;;;8.30;62.30;98930.28;5075038;28;20045;-81
2024/03/10 04:33:00;;;;;;;14.35;10.05;;;;;;;8.42;61.40;98936.94;5071151;28;20072;-79
2024/03/10 04:35:28;;;;;;;13.00;9.75;;;;;;;8.64;60.33;98935.47;5059226;28;20053;-81
2024/03/10 04:37:55;;;;;;;13.15;9.50;;;;;;;8.56;61.00;98936.28;5057814;28;20397;-79
2024/03/10 04:40:23;;;;;;;14.95;9.73;;;;;;;8.54;61.59;98940.09;5058041;28;20127;-79
2024/03/10 04:42:49;;;;;;;15.50;10.10;;;;;;;8.54;62.40;98946.19;5059356;28;20380;-79
2024/03/10 04:45:19;;;;;;;12.57;8.82;;;;;;;8.79;59.57;98943.56;5057293;28;20144;-80
2024/03/10 04:47:46;;;;;;;14.30;9.55;;;;;;;8.76;61.04;98933.34;5057250;28;20049;-80
2024/03/10 04:50:13;;;;;;;13.45;9.18;;;;;;;8.75;60.58;98942.22;5057490;28;20056;-80
2024/03/10 04:52:41;;;;;;;15.80;9.25;;;;;;;8.83;60.02;98934.31;5054113;28;20068;-80
2024/03/10 04:55:08;;;;;;;13.93;9.55;;;;;;;8.92;59.05;98932.50;5055058;28;20481;-80
2024/03/10 04:57:36;;;;;;;16.38;9.52;;;;;;;8.95;59.13;98925.09;5055431;28;20089;-81
2024/03/10 05:00:09;;;;;;;13.50;9.48;;;;;;;8.95;59.44;98927.72;5056294;28;20045;-81
2024/03/10 05:02:36;;;;;;;14.80;9.18;;;;;;;9.01;58.72;98926.25;5061544;28;20396;-81
2024/03/10 05:05:03;;;;;;;13.70;9.40;;;;;;;9.17;58.36;98912.22;5060127;28;20045;-81
2024/03/10 05:07:29;;;;;;;13.13;9.27;;;;;;;9.11;58.36;98905.81;5056817;28;20092;-81
2024/03/10 05:09:57;;;;;;;12.32;9.43;;;;;;;9.09;58.20;98892.75;5059344;28;20134;-80
2024/03/10 05:12:24;;;;;;;13.57;9.82;;;;;;;9.01;58.87;98895.41;5058325;28;20159;-80
2024/03/10 05:14:52;;;;;;;14.70;9.32;;;;;;;9.06;58.48;98900.19;5058530;28;20045;-80
2024/03/10 05:17:18;;;;;;;12.05;8.82;;;;;;;9.15;57.91;98895.72;5058222;28;20084;-79
2024/03/10 05:19:45;;;;;;;12.30;8.73;;;;;;;9.06;58.03;98895.75;5049040;28;20128;-80
2024/03/10 05:22:16;;;;;;;11.85;8.77;;;;;;;9.00;58.52;98883.22;5061869;28;20053;-78
2024/03/10 05:24:42;;;;;;;14.30;9.13;;;;;;;9.07;57.83;98886.00;5048569;28;20496;-80
2024/03/10 05:27:09;;;;;;;12.05;8.52;;;;;;;9.21;57.57;98881.88;5058474;28;20122;-82
2024/03/10 05:29:38;;;;;;;11.57;8.75;;;;;;;9.19;57.17;98889.09;5058424;28;20084;-80
2024/03/10 05:32:07;;;;;;;11.50;8.95;;;;;;;9.23;56.93;98893.88;5058620;28;20063;-81
2024/03/10 05:34:35;;;;;;;13.50;9.32;;;;;;;9.20;57.42;98898.69;5058786;28;20080;-80
2024/03/10 05:37:02;;;;;;;12.27;8.50;;;;;;;9.19;57.46;98899.66;5060421;28;20049;-80
2024/03/10 05:39:29;;;;;;;12.93;8.73;;;;;;;9.21;57.32;98901.16;5059683;28;20155;-82
2024/03/10 05:41:56;;;;;;;13.38;9.20;;;;;;;9.33;56.60;98893.69;5060504;28;20132;-81
2024/03/10 05:44:22;;;;;;;12.68;9.20;;;;;;;9.23;57.29;98903.63;5060111;28;20081;-82
2024/03/10 05:46:49;;;;;;;11.90;8.45;;;;;;;9.21;57.23;98905.63;5059686;28;20079;-82
2024/03/10 05:49:18;;;;;;;12.88;8.57;;;;;;;9.26;57.17;98898.84;5060800;28;20045;-82
2024/03/10 05:51:47;;;;;;;14.75;9.02;;;;;;;9.21;57.11;98897.69;5060718;28;20080;-82
2024/03/10 05:54:17;;;;;;;13.43;9.00;;;;;;;9.21;57.19;98900.34;5060105;28;20053;-81
2024/03/10 05:56:43;;;;;;;14.73;9.75;;;;;;;9.17;57.70;98904.31;5049544;28;20510;-79
2024/03/10 05:59:10;;;;;;;15.32;9.13;;;;;;;9.11;58.07;98900.53;5057399;28;20048;-79
2024/03/10 06:01:37;;;;;;;14.60;9.10;;;;;;;9.14;57.50;98907.25;5057151;28;20088;-79
2024/03/10 06:04:04;;;;;;;12.27;8.98;;;;;;;9.13;57.86;98902.97;5060369;28;20084;-82
2024/03/10 06:06:32;;;;;;;11.90;8.73;;;;;;;9.06;58.33;98914.22;5060002;28;20164;-81
2024/03/10 06:09:05;;;;;;;13.88;9.30;;;;;;;9.06;57.78;98919.50;5060868;28;20131;-82
2024/03/10 06:11:31;;;;;;;15.73;9.02;;;;;;;8.97;58.50;98920.47;5060806;28;20114;-82
2024/03/10 06:13:58;;;;;;;14.82;9.27;;;;;;;8.96;58.41;98929.38;5059983;28;20392;-81
2024/03/10 06:16:25;;;;;;;12.65;8.98;;;;;;;8.96;58.82;98937.28;5060252;28;20072;-82
2024/03/10 06:27:05;;;;;;;14.57;9.50;;;;;;;8.65;60.84;98949.47;5059323;28;20129;-82
2024/03/10 06:29:31;;;;;;;15.70;9.20;;;;;;;8.67;60.21;98944.88;5058852;28;20088;-81
2024/03/10 06:31:58;;;;;;;12.48;9.18;;;;;;;8.56;60.46;98949.47;5054140;28;20511;-81
2024/03/10 06:34:25;;;;;;;15.00;9.23;;;;;;;8.50;60.71;98944.84;5052406;28;20134;-80
2024/03/10 06:36:54;;;;;;;13.13;9.93;;;;;;;8.45;61.48;98947.16;5059213;28;20049;-78
2024/03/10 06:39:21;;;;;;;14.85;10.85;;;;;;;8.47;61.26;98950.44;5059742;28;20052;-80
2024/03/10 06:41:48;;;;;;;11.98;9.50;;;;;;;8.46;61.31;98943.53;5059520;28;20091;-80
2024/03/10 06:44:17;;;;;;;14.35;9.40;;;;;;;8.47;61.20;98949.63;5056101;28;20579;-80
2024/03/10 06:46:44;;;;;;;13.80;9.90;;;;;;;8.50;61.08;98944.03;5055197;28;20090;-81
2024/03/10 06:49:10;;;;;;;13.32;8.90;;;;;;;8.47;61.31;98955.72;5058981;28;20080;-80
2024/03/10 06:51:37;;;;;;;13.73;9.80;;;;;;;8.50;60.87;98957.22;5059332;28;20057;-81
2024/03/10 06:54:05;;;;;;;13.40;9.18;;;;;;;8.55;60.76;98947.81;5057663;28;20123;-80
2024/03/10 06:56:34;;;;;;;14.82;9.70;;;;;;;8.61;60.97;98947.16;5055947;28;20053;-80
2024/03/10 06:59:02;;;;;;;13.30;9.30;;;;;;;8.76;60.01;98954.44;5051423;28;20075;-80
2024/03/10 07:01:29;;;;;;;14.40;9.60;;;;;;;8.81;59.77;98952.13;5044270;28;20052;-80
2024/03/10 07:03:56;;;;;;;13.25;9.27;;;;;;;8.83;59.72;98950.16;5055495;28;20124;-81
2024/03/10 07:06:22;;;;;;;14.85;10.32;;;;;;;8.84;59.79;98951.81;5060595;28;20155;-82
2024/03/10 07:08:50;;;;;;;13.77;9.73;;;;;;;8.88;59.59;98952.28;5060626;28;20045;-80
2024/03/10 07:11:18;;;;;;;13.27;9.38;;;;;;;8.90;59.65;98950.34;5056747;28;20507;-81
2024/03/10 07:13:45;;;;;;;12.98;9.80;;;;;;;8.91;59.58;98952.78;5052052;28;20107;-80
2024/03/10 07:16:13;;;;;;;13.95;10.00;;;;;;;8.97;59.54;98946.84;5057115;28;20061;-81
2024/03/10 07:18:40;;;;;;;13.13;9.18;;;;;;;8.99;59.32;98954.63;5059850;28;20143;-83
2024/03/10 07:21:07;;;;;;;14.65;9.60;;;;;;;9.06;58.85;98951.16;5057692;28;20062;-82
2024/03/10 07:23:34;;;;;;;14.73;10.05;;;;;;;9.11;59.19;98940.94;5061581;28;20337;-80
2024/03/10 07:26:01;;;;;;;13.88;9.23;;;;;;;9.13;59.09;98939.94;5059787;28;20096;-80
2024/03/10 07:28:29;;;;;;;17.52;10.32;;;;;;;9.24;58.46;98936.94;5060515;28;20204;-79
2024/03/10 07:30:56;;;;;;;13.38;9.43;;;;;;;9.25;58.56;98943.88;5059814;28;20053;-81
2024/03/10 07:33:23;;;;;;;13.95;10.00;;;;;;;9.28;58.41;98938.25;5057590;28;20128;-80
2024/03/10 07:35:49;;;;;;;13.68;9.75;;;;;;;9.34;58.36;98948.16;5055810;28;20128;-81
2024/03/10 07:38:16;;;;;;;15.25;9.93;;;;;;;9.42;57.72;98955.22;5062070;28;20085;-81
2024/03/10 07:40:43;;;;;;;14.75;10.02;;;;;;;9.42;58.53;98955.22;5061146;28;20041;-80
2024/03/10 07:43:09;;;;;;;12.15;9.45;;;;;;;9.43;59.14;98957.72;5062302;28;20519;-81
2024/03/10 07:45:37;;;;;;;16.65;10.80;;;;;;;9.49;58.45;98964.13;5060604;28;20037;-78
2024/03/10 07:48:05;;;;;;;14.23;9.60;;;;;;;9.48;58.24;98968.59;5065851;28;20496;-82
2024/03/10 07:50:32;;;;;;;15.65;10.40;;;;;;;9.45;58.90;98960.16;5064131;28;20080;-80
2024/03/10 07:52:59;;;;;;;13.93;9.80;;;;;;;9.52;58.55;98969.91;5061328;28;20123;-80
2024/03/10 07:55:30;;;;;;;14.73;10.45;;;;;;;9.61;58.61;98979.47;5054765;28;20570;-79
2024/03/10 07:57:57;;;;;;;16.45;11.85;;;;;;;9.63;59.94;98974.00;5057087;28;20073;-78
2024/03/10 08:00:25;;;;;;;14.35;10.30;;;;;;;9.70;59.44;98979.44;5057426;28;20081;-80
2024/03/10 08:02:56;;;;;;;13.85;9.98;;;;;;;9.83;58.07;98977.09;5058517;28;20053;-81
2024/03/10 08:05:25;;;;;;;15.07;11.35;;;;;;;9.76;57.97;98970.81;5060981;28;20113;-81
2024/03/10 08:07:53;;;;;;;13.68;10.27;;;;;;;9.91;58.22;98974.44;5061660;28;20526;-82
2024/03/10 08:10:23;;;;;;;15.05;10.15;;;;;;;10.05;57.29;98983.47;5060039;28;20060;-81
2024/03/10 08:12:51;;;;;;;15.15;10.35;;;;;;;10.26;57.74;98991.63;5060845;28;20060;-83
2024/03/10 08:15:18;;;;;;;17.13;10.10;;;;;;;10.49;56.67;98986.41;5056897;28;20057;-83
2024/03/10 08:17:45;;;;;;;15.38;10.73;;;;;;;10.78;56.00;98990.19;5060875;28;20076;-83
2024/03/10 08:20:14;;;;;;;15.57;10.82;;;;;;;11.25;54.27;98979.41;5061530;28;20053;-80
2024/03/10 08:22:42;;;;;;;14.00;10.40;;;;;;;11.11;54.07;98975.69;5062002;28;20063;-81
2024/03/10 08:25:09;;;;;;;13.93;10.48;;;;;;;11.15;54.06;98976.19;5057967;28;20044;-81
2024/03/10 08:27:36;;;;;;;14.27;10.05;;;;;;;11.12;53.90;98980.00;5057639;28;20079;-80
2024/03/10 08:30:04;;;;;;;15.25;10.00;;;;;;;11.13;53.54;98976.38;5057341;28;20509;-80
2024/03/10 08:32:31;;;;;;;14.73;10.38;;;;;;;10.91;52.88;98976.38;5057988;28;20177;-81
2024/03/10 08:34:57;;;;;;;13.38;10.10;;;;;;;11.04;54.10;98976.63;5061227;28;20076;-82
2024/03/10 08:37:27;;;;;;;14.65;11.10;;;;;;;10.98;53.60;98964.06;5061763;28;20095;-80
2024/03/10 08:39:55;;;;;;;13.98;10.48;;;;;;;11.08;53.82;98960.19;5057406;28;20084;-82
2024/03/10 08:42:24;;;;;;;13.88;10.45;;;;;;;11.04;53.17;98966.84;5064567;28;20104;-81
2024/03/10 08:44:51;;;;;;;14.32;10.82;;;;;;;11.19;52.96;98963.41;5061988;28;20088;-82
2024/03/10 08:47:18;;;;;;;14.60;10.98;;;;;;;11.18;53.05;98961.78;5062275;28;20175;-81
2024/03/10 08:49:45;;;;;;;15.48;10.88;;;;;;;11.06;53.16;98956.06;5064598;28;20084;-82
2024/03/10 08:52:12;;;;;;;19.67;11.75;;;;;;;10.90;52.92;98954.38;5058825;28;20081;-81
2024/03/10 08:54:40;;;;;;;14.68;10.60;;;;;;;10.97;53.20;98946.53;5057551;28;20057;-82
2024/03/10 08:57:09;;;;;;;14.55;10.43;;;;;;;10.97;52.94;98947.38;5051580;28;20044;-82
2024/03/10 08:59:35;;;;;;;13.70;9.55;;;;;;;11.16;51.68;98940.75;5081336;22;20068;-80
2024/03/10 09:02:02;;;;;;;15.10;10.90;;;;;;;11.36;50.82;98925.19;5062578;28;20075;-84
2024/03/10 09:04:29;;;;;;;13.90;10.20;;;;;;;11.44;50.43;98903.91;5058441;28;20074;-82
2024/03/10 09:06:56;;;;;;;15.93;10.35;;;;;;;11.87;50.30;98896.13;5062021;28;20049;-81
2024/03/10 09:09:22;;;;;;;14.15;10.57;;;;;;;12.06;49.02;98884.16;5059232;28;20086;-80
2024/03/10 09:11:51;;;;;;;14.00;10.57;;;;;;;12.13;48.48;98879.72;5056082;28;20072;-80
2024/03/10 09:14:19;;;;;;;14.77;10.68;;;;;;;12.07;48.60;98886.59;5055833;28;20060;-82
2024/03/10 09:16:45;;;;;;;17.00;10.57;;;;;;;12.14;48.55;98886.66;5056807;28;20057;-82
2024/03/10 09:19:12;;;;;;;15.73;10.80;;;;;;;12.11;48.57;98887.06;5064959;28;20088;-80
2024/03/10 09:21:39;;;;;;;14.52;10.43;;;;;;;12.05;48.55;98899.19;5061739;28;20045;-79
2024/03/10 09:24:08;;;;;;;15.18;10.50;;;;;;;11.91;48.77;98878.84;5060576;28;20139;-81
2024/03/10 09:26:35;;;;;;;12.68;10.05;;;;;;;12.11;48.29;98887.88;5060272;28;20470;-80
2024/03/10 09:29:03;;;;;;;14.32;10.07;;;;;;;12.23;48.49;98900.63;5058811;28;20048;-80
2024/03/10 09:31:30;;;;;;;14.27;11.05;;;;;;;12.14;48.75;98903.41;5056692;28;20470;-80
2024/03/10 09:33:59;;;;;;;15.60;10.75;;;;;;;12.14;48.48;98903.41;5055351;28;20053;-80
2024/03/10 09:36:26;;;;;;;13.18;10.02;;;;;;;12.05;48.48;98904.50;5056995;28;20079;-80
2024/03/10 09:38:54;;;;;;;14.63;10.25;;;;;;;11.98;48.79;98908.09;5060760;28;20053;-79
2024/03/10 09:41:21;;;;;;;16.27;10.23;;;;;;;12.38;48.35;98914.69;5062391;28;20059;-79
2024/03/10 09:43:51;;;;;;;14.07;10.70;;;;;;;12.61;47.82;98899.41;5059911;28;20068;-80
2024/03/10 09:46:20;;;;;;;15.32;9.93;;;;;;;12.65;47.52;98905.97;5056073;28;20101;-81
2024/03/10 09:48:47;;;;;;;17.17;10.77;;;;;;;12.85;47.66;98907.97;5066809;28;20051;-80
2024/03/10 09:51:15;;;;;;;12.93;10.23;;;;;;;12.79;47.07;98924.69;5058251;28;20070;-81
2024/03/10 09:53:41;;;;;;;13.45;9.85;;;;;;;12.54;47.19;98919.72;5060505;28;20098;-79
2024/03/10 09:56:09;;;;;;;16.75;10.50;;;;;;;12.74;46.65;98919.13;5056345;28;20045;-81
2024/03/10 09:58:44;;;;;;;14.82;9.80;;;;;;;12.58;47.02;98915.69;5059933;28;20525;-79
2024/03/10 10:01:18;;;;;;;13.75;10.30;;;;;;;12.97;46.57;98913.59;5061917;28;20269;-79
2024/03/10 10:03:49;;;;;;;14.95;10.63;;;;;;;13.14;46.93;98909.66;5057157;28;20437;-80
2024/03/10 10:06:18;;;;;;;11.82;9.45;;;;;;;13.15;45.79;98912.09;5058498;28;20060;-78
2024/03/10 10:08:45;;;;;;;13.85;10.70;;;;;;;13.29;45.33;98910.41;5064463;28;20052;-80
2024/03/10 10:11:13;;;;;;;14.55;9.82;;;;;;;12.95;45.82;98911.16;5074143;28;20048;-79
2024/03/10 10:13:42;;;;;;;14.10;10.50;;;;;;;13.01;46.11;98905.06;5073377;28;20049;-78
2024/03/10 10:16:12;;;;;;;13.93;10.02;;;;;;;13.18;44.96;98894.97;5065947;28;20067;-78
2024/03/10 10:18:38;;;;;;;13.93;10.02;;;;;;;13.44;45.04;98888.22;5055420;28;20478;-78
2024/03/10 10:21:07;;;;;;;12.80;9.80;;;;;;;13.52;45.10;98885.41;5051930;28;20088;-78
2024/03/10 10:23:36;;;;;;;15.13;10.57;;;;;;;13.73;44.64;98876.50;5057290;28;20084;-79
2024/03/10 10:26:09;;;;;;;14.55;10.75;;;;;;;13.86;44.17;98879.22;5066254;28;20066;-79
2024/03/10 10:28:37;;;;;;;14.88;11.23;;;;;;;14.11;43.43;98864.41;5062080;28;20457;-79
2024/03/10 10:31:14;;;;;;;13.15;10.55;;;;;;;14.03;43.35;98871.72;5063478;28;20056;-79
2024/03/10 10:33:45;;;;;;;13.40;10.63;;;;;;;13.89;43.53;98873.53;5057067;28;20143;-78
2024/03/10 10:36:13;;;;;;;14.60;10.77;;;;;;;13.73;44.18;98872.00;5068523;28;20054;-79
2024/03/10 10:38:45;;;;;;;12.75;9.70;;;;;;;13.77;44.02;98873.25;5070384;28;20057;-78
2024/03/10 10:41:12;;;;;;;14.35;10.82;;;;;;;13.98;43.86;98875.00;5073688;28;20063;-80
2024/03/10 10:43:40;;;;;;;13.52;10.05;;;;;;;14.13;43.27;98865.00;5067435;28;20192;-78
2024/03/10 10:46:10;;;;;;;14.30;9.55;;;;;;;14.26;41.48;98866.06;5072454;28;20071;-79
2024/03/10 10:48:37;;;;;;;13.50;9.55;;;;;;;14.27;41.02;98863.19;5058593;28;20045;-79
2024/03/10 10:51:06;;;;;;;12.15;9.40;;;;;;;14.31;41.16;98859.09;5069265;28;20083;-81
2024/03/10 10:53:35;;;;;;;13.63;10.10;;;;;;;14.03;41.31;98861.09;5069157;28;20056;-78
2024/03/10 10:56:04;;;;;;;11.75;8.70;;;;;;;13.94;41.72;98872.94;5069405;28;20514;-79
2024/03/10 10:58:34;;;;;;;13.32;9.45;;;;;;;13.96;42.55;98887.66;5064017;28;20046;-80
2024/03/10 11:01:05;;;;;;;12.75;9.93;;;;;;;13.97;42.71;98889.28;5054294;28;20059;-79
2024/03/10 11:03:36;;;;;;;13.00;9.77;;;;;;;14.20;42.55;98888.97;5061728;28;20048;-82
2024/03/10 11:06:26;;;;;;;13.23;9.93;;;;;;;14.10;41.30;98878.69;5061180;28;20048;-80
2024/03/10 11:08:56;;;;;;;13.18;9.32;;;;;;;14.12;41.84;98879.31;5062539;28;20057;-80
2024/03/10 11:11:45;;;;;;;13.98;10.75;;;;;;;14.09;42.49;98878.91;5057162;28;20063;-80
2024/03/10 11:14:16;;;;;;;13.90;10.32;;;;;;;14.37;42.50;98889.41;5055011;28;20045;-79
2024/03/10 11:16:43;;;;;;;12.63;9.85;;;;;;;14.21;41.42;98884.47;5062046;28;20370;-79
2024/03/10 11:19:21;;;;;;;13.77;9.70;;;;;;;14.32;41.38;98873.22;5067279;28;20064;-82
2024/03/10 11:21:49;;;;;;;13.43;9.93;;;;;;;14.21;41.49;98881.81;5069532;28;20044;-79
2024/03/10 11:24:23;;;;;;;12.38;9.68;;;;;;;14.25;42.14;98873.22;5069473;28;20098;-79
2024/03/10 11:27:17;;;;;;;12.25;9.70;;;;;;;14.58;41.78;98865.31;5064011;28;20075;-82
2024/03/10 11:29:45;;;;;;;13.75;9.77;;;;;;;14.82;42.08;98865.72;5056790;28;20060;-81
2024/03/10 11:32:30;;;;;;;14.00;10.43;;;;;;;15.03;40.51;98856.72;5076029;28;20102;-80
2024/03/10 11:34:59;;;;;;;16.80;11.43;;;;;;;15.01;41.05;98864.94;5074673;28;20052;-80
2024/03/10 11:37:26;;;;;;;13.95;10.75;;;;;;;15.06;40.58;98857.13;5067125;28;20148;-80
2024/03/10 11:39:54;;;;;;;15.82;11.10;;;;;;;15.17;40.50;98861.00;5065399;28;20135;-81
2024/03/10 11:42:23;;;;;;;14.10;10.75;;;;;;;15.54;41.47;98851.50;5070119;28;20045;-79
2024/03/10 11:44:50;;;;;;;14.45;11.27;;;;;;;15.87;39.38;98861.25;5068403;28;20055;-80
2024/03/10 11:47:21;;;;;;;15.38;11.57;;;;;;;15.95;39.12;98850.34;5069846;28;20131;-80
2024/03/10 11:49:50;;;;;;;13.50;10.07;;;;;;;16.00;38.47;98863.88;5056322;28;20081;-80
2024/03/10 11:52:20;;;;;;;14.90;11.00;;;;;;;15.83;39.04;98865.38;5056468;28;20507;-80
2024/03/10 11:54:56;;;;;;;17.52;10.85;;;;;;;15.98;39.17;98854.41;5057784;28;20515;-81
2024/03/10 11:57:24;;;;;;;13.75;10.23;;;;;;;16.00;39.82;98858.53;5038744;28;20049;-81